sensor_id;sensor_type;location;lat;lon;timestamp;P1;durP1;ratioP1;P2;durP2;ratioP2
20036;SDS011;10179;42.640;23.312;2022-11-20T00:01:39;2.90;;;0.68;;
20036;SDS011;10179;42.640;23.312;2022-11-20T00:04:05;2.17;;;0.88;;
20036;SDS011;10179;42.640;23.312;2022-11-20T00:06:31;1.25;;;0.60;;
20036;SDS011;10179;42.640;23.312;2022-11-20T00:08:57;4.00;;;0.75;;
20036;SDS011;10179;42.640;23.312;2022-11-20T00:11:25;2.45;;;0.70;;
20036;SDS011;10179;42.640;23.312;2022-11-20T00:13:53;1.35;;;0.68;;
20036;SDS011;10179;42.640;23.312;2022-11-20T00:16:23;3.40;;;0.85;;
20036;SDS011;10179;42.640;23.312;2022-11-20T00:18:50;2.50;;;0.75;;
20036;SDS011;10179;42.640;23.312;2022-11-20T00:21:20;2.92;;;1.13;;
20036;SDS011;10179;42.640;23.312;2022-11-20T00:23:46;4.97;;;0.80;;
20036;SDS011;10179;42.640;23.312;2022-11-20T00:26:13;4.07;;;0.80;;
20036;SDS011;10179;42.640;23.312;2022-11-20T00:28:41;1.48;;;0.63;;
20036;SDS011;10179;42.640;23.312;2022-11-20T00:31:09;1.00;;;0.52;;
20036;SDS011;10179;42.640;23.312;2022-11-20T00:33:36;1.95;;;0.50;;
20036;SDS011;10179;42.640;23.312;2022-11-20T00:36:02;6.53;;;0.90;;
20036;SDS011;10179;42.640;23.312;2022-11-20T00:38:30;5.20;;;0.65;;
20036;SDS011;10179;42.640;23.312;2022-11-20T00:40:59;2.97;;;0.80;;
20036;SDS011;10179;42.640;23.312;2022-11-20T00:43:29;1.40;;;0.85;;
20036;SDS011;10179;42.640;23.312;2022-11-20T00:48:23;2.70;;;0.57;;
20036;SDS011;10179;42.640;23.312;2022-11-20T00:50:48;2.88;;;0.60;;
20036;SDS011;10179;42.640;23.312;2022-11-20T00:53:14;2.10;;;0.60;;
20036;SDS011;10179;42.640;23.312;2022-11-20T00:55:39;1.50;;;0.55;;
20036;SDS011;10179;42.640;23.312;2022-11-20T00:58:04;2.47;;;0.75;;
20036;SDS011;10179;42.640;23.312;2022-11-20T01:00:30;2.60;;;0.75;;
20036;SDS011;10179;42.640;23.312;2022-11-20T01:02:55;1.30;;;0.43;;
20036;SDS011;10179;42.640;23.312;2022-11-20T01:05:21;1.90;;;0.60;;
20036;SDS011;10179;42.640;23.312;2022-11-20T01:07:46;1.33;;;0.75;;
20036;SDS011;10179;42.640;23.312;2022-11-20T01:10:11;1.15;;;0.43;;
20036;SDS011;10179;42.640;23.312;2022-11-20T01:12:37;0.98;;;0.50;;
20036;SDS011;10179;42.640;23.312;2022-11-20T01:15:02;1.88;;;0.70;;
20036;SDS011;10179;42.640;23.312;2022-11-20T01:17:28;3.17;;;0.60;;
20036;SDS011;10179;42.640;23.312;2022-11-20T01:19:53;3.97;;;0.70;;
20036;SDS011;10179;42.640;23.312;2022-11-20T01:22:19;0.82;;;0.40;;
20036;SDS011;10179;42.640;23.312;2022-11-20T01:24:44;2.33;;;0.63;;
20036;SDS011;10179;42.640;23.312;2022-11-20T01:27:09;2.15;;;0.45;;
20036;SDS011;10179;42.640;23.312;2022-11-20T01:29:35;4.15;;;0.75;;
20036;SDS011;10179;42.640;23.312;2022-11-20T01:32:00;3.10;;;0.60;;
20036;SDS011;10179;42.640;23.312;2022-11-20T01:34:26;3.28;;;0.80;;
20036;SDS011;10179;42.640;23.312;2022-11-20T01:36:51;0.55;;;0.47;;
20036;SDS011;10179;42.640;23.312;2022-11-20T01:39:19;1.58;;;0.52;;
20036;SDS011;10179;42.640;23.312;2022-11-20T01:41:47;2.08;;;0.50;;
20036;SDS011;10179;42.640;23.312;2022-11-20T01:47:27;1.67;;;0.43;;
20036;SDS011;10179;42.640;23.312;2022-11-20T01:50:04;1.17;;;0.57;;
20036;SDS011;10179;42.640;23.312;2022-11-20T01:52:38;1.85;;;1.15;;
20036;SDS011;10179;42.640;23.312;2022-11-20T01:55:09;1.08;;;0.40;;
20036;SDS011;10179;42.640;23.312;2022-11-20T01:57:37;1.08;;;0.60;;
20036;SDS011;10179;42.640;23.312;2022-11-20T02:00:06;1.35;;;0.30;;
20036;SDS011;10179;42.640;23.312;2022-11-20T02:02:37;1.63;;;0.50;;
20036;SDS011;10179;42.640;23.312;2022-11-20T02:08:08;1.80;;;0.43;;
20036;SDS011;10179;42.640;23.312;2022-11-20T02:10:33;1.38;;;0.50;;
20036;SDS011;10179;42.640;23.312;2022-11-20T02:12:59;6.57;;;0.50;;
20036;SDS011;10179;42.640;23.312;2022-11-20T02:15:44;1.58;;;0.47;;
20036;SDS011;10179;42.640;23.312;2022-11-20T02:18:11;1.02;;;0.50;;
20036;SDS011;10179;42.640;23.312;2022-11-20T02:20:38;1.25;;;0.40;;
20036;SDS011;10179;42.640;23.312;2022-11-20T02:23:12;3.50;;;0.45;;
20036;SDS011;10179;42.640;23.312;2022-11-20T02:25:43;1.98;;;0.40;;
20036;SDS011;10179;42.640;23.312;2022-11-20T02:28:12;3.53;;;0.60;;
20036;SDS011;10179;42.640;23.312;2022-11-20T02:30:38;2.35;;;0.50;;
20036;SDS011;10179;42.640;23.312;2022-11-20T02:33:03;4.20;;;0.50;;
20036;SDS011;10179;42.640;23.312;2022-11-20T02:37:54;2.38;;;0.60;;
20036;SDS011;10179;42.640;23.312;2022-11-20T02:40:21;1.70;;;0.65;;
20036;SDS011;10179;42.640;23.312;2022-11-20T02:42:47;2.17;;;0.40;;
20036;SDS011;10179;42.640;23.312;2022-11-20T02:45:13;1.33;;;0.80;;
20036;SDS011;10179;42.640;23.312;2022-11-20T02:47:38;1.35;;;0.60;;
20036;SDS011;10179;42.640;23.312;2022-11-20T02:50:04;1.73;;;0.70;;
20036;SDS011;10179;42.640;23.312;2022-11-20T02:52:30;2.30;;;0.52;;
20036;SDS011;10179;42.640;23.312;2022-11-20T02:54:55;2.35;;;0.70;;
20036;SDS011;10179;42.640;23.312;2022-11-20T02:57:21;2.45;;;0.60;;
20036;SDS011;10179;42.640;23.312;2022-11-20T02:59:46;2.80;;;0.70;;
20036;SDS011;10179;42.640;23.312;2022-11-20T03:02:12;0.95;;;0.82;;
20036;SDS011;10179;42.640;23.312;2022-11-20T03:04:37;1.95;;;0.73;;
20036;SDS011;10179;42.640;23.312;2022-11-20T03:07:03;1.95;;;0.90;;
20036;SDS011;10179;42.640;23.312;2022-11-20T03:09:28;3.42;;;0.75;;
20036;SDS011;10179;42.640;23.312;2022-11-20T03:11:54;2.40;;;0.80;;
20036;SDS011;10179;42.640;23.312;2022-11-20T03:14:19;1.35;;;0.65;;
20036;SDS011;10179;42.640;23.312;2022-11-20T03:16:45;1.98;;;0.82;;
20036;SDS011;10179;42.640;23.312;2022-11-20T03:19:11;1.83;;;0.82;;
20036;SDS011;10179;42.640;23.312;2022-11-20T03:21:37;3.03;;;0.80;;
20036;SDS011;10179;42.640;23.312;2022-11-20T03:24:02;2.53;;;0.70;;
20036;SDS011;10179;42.640;23.312;2022-11-20T03:26:28;4.55;;;0.85;;
20036;SDS011;10179;42.640;23.312;2022-11-20T03:28:55;2.90;;;0.93;;
20036;SDS011;10179;42.640;23.312;2022-11-20T03:31:28;4.47;;;0.70;;
20036;SDS011;10179;42.640;23.312;2022-11-20T03:33:56;3.20;;;0.70;;
20036;SDS011;10179;42.640;23.312;2022-11-20T03:36:23;1.70;;;0.60;;
20036;SDS011;10179;42.640;23.312;2022-11-20T03:38:48;4.75;;;0.73;;
20036;SDS011;10179;42.640;23.312;2022-11-20T03:41:18;1.42;;;0.50;;
20036;SDS011;10179;42.640;23.312;2022-11-20T03:43:49;2.25;;;0.70;;
20036;SDS011;10179;42.640;23.312;2022-11-20T03:46:16;2.95;;;0.77;;
20036;SDS011;10179;42.640;23.312;2022-11-20T03:48:41;3.97;;;0.80;;
20036;SDS011;10179;42.640;23.312;2022-11-20T03:51:11;1.70;;;0.80;;
20036;SDS011;10179;42.640;23.312;2022-11-20T03:53:42;0.60;;;0.50;;
20036;SDS011;10179;42.640;23.312;2022-11-20T03:56:09;2.28;;;0.88;;
20036;SDS011;10179;42.640;23.312;2022-11-20T03:58:36;2.05;;;0.65;;
20036;SDS011;10179;42.640;23.312;2022-11-20T04:01:07;1.52;;;0.88;;
20036;SDS011;10179;42.640;23.312;2022-11-20T04:03:34;0.82;;;0.55;;
20036;SDS011;10179;42.640;23.312;2022-11-20T04:06:05;1.38;;;0.60;;
20036;SDS011;10179;42.640;23.312;2022-11-20T04:08:31;3.38;;;0.85;;
20036;SDS011;10179;42.640;23.312;2022-11-20T04:11:07;1.77;;;0.98;;
20036;SDS011;10179;42.640;23.312;2022-11-20T04:13:35;2.90;;;0.80;;
20036;SDS011;10179;42.640;23.312;2022-11-20T04:16:01;1.00;;;0.45;;
20036;SDS011;10179;42.640;23.312;2022-11-20T04:18:26;2.50;;;0.90;;
20036;SDS011;10179;42.640;23.312;2022-11-20T04:20:52;1.33;;;0.50;;
20036;SDS011;10179;42.640;23.312;2022-11-20T04:23:17;2.25;;;0.90;;
20036;SDS011;10179;42.640;23.312;2022-11-20T04:25:42;5.38;;;0.60;;
20036;SDS011;10179;42.640;23.312;2022-11-20T04:28:08;3.47;;;0.77;;
20036;SDS011;10179;42.640;23.312;2022-11-20T04:30:33;2.38;;;0.40;;
20036;SDS011;10179;42.640;23.312;2022-11-20T04:32:58;3.55;;;0.60;;
20036;SDS011;10179;42.640;23.312;2022-11-20T04:35:24;2.80;;;0.43;;
20036;SDS011;10179;42.640;23.312;2022-11-20T04:37:51;2.83;;;0.60;;
20036;SDS011;10179;42.640;23.312;2022-11-20T04:40:17;5.55;;;0.98;;
20036;SDS011;10179;42.640;23.312;2022-11-20T04:42:42;3.78;;;0.60;;
20036;SDS011;10179;42.640;23.312;2022-11-20T04:45:08;3.30;;;0.70;;
20036;SDS011;10179;42.640;23.312;2022-11-20T04:47:33;2.70;;;0.60;;
20036;SDS011;10179;42.640;23.312;2022-11-20T04:49:59;1.85;;;0.60;;
20036;SDS011;10179;42.640;23.312;2022-11-20T04:52:24;1.67;;;0.50;;
20036;SDS011;10179;42.640;23.312;2022-11-20T04:54:49;2.85;;;0.77;;
20036;SDS011;10179;42.640;23.312;2022-11-20T04:57:17;1.33;;;0.45;;
20036;SDS011;10179;42.640;23.312;2022-11-20T04:59:43;2.75;;;0.47;;
20036;SDS011;10179;42.640;23.312;2022-11-20T05:02:08;2.00;;;0.50;;
20036;SDS011;10179;42.640;23.312;2022-11-20T05:04:35;0.80;;;0.40;;
20036;SDS011;10179;42.640;23.312;2022-11-20T05:07:00;1.73;;;0.47;;
20036;SDS011;10179;42.640;23.312;2022-11-20T05:09:25;1.90;;;0.40;;
20036;SDS011;10179;42.640;23.312;2022-11-20T05:11:51;2.65;;;0.52;;
20036;SDS011;10179;42.640;23.312;2022-11-20T05:14:16;1.85;;;0.40;;
20036;SDS011;10179;42.640;23.312;2022-11-20T05:16:41;0.65;;;0.40;;
20036;SDS011;10179;42.640;23.312;2022-11-20T05:19:07;4.00;;;0.50;;
20036;SDS011;10179;42.640;23.312;2022-11-20T05:21:32;1.67;;;0.70;;
20036;SDS011;10179;42.640;23.312;2022-11-20T05:23:58;0.55;;;0.35;;
20036;SDS011;10179;42.640;23.312;2022-11-20T05:26:23;1.92;;;0.45;;
20036;SDS011;10179;42.640;23.312;2022-11-20T05:28:49;1.13;;;0.40;;
20036;SDS011;10179;42.640;23.312;2022-11-20T05:31:16;6.10;;;0.77;;
20036;SDS011;10179;42.640;23.312;2022-11-20T05:33:44;1.45;;;0.57;;
20036;SDS011;10179;42.640;23.312;2022-11-20T05:36:10;2.75;;;0.43;;
20036;SDS011;10179;42.640;23.312;2022-11-20T05:38:37;1.00;;;0.47;;
20036;SDS011;10179;42.640;23.312;2022-11-20T05:41:07;2.20;;;0.70;;
20036;SDS011;10179;42.640;23.312;2022-11-20T05:43:37;4.47;;;1.17;;
20036;SDS011;10179;42.640;23.312;2022-11-20T05:46:04;1.15;;;0.50;;
20036;SDS011;10179;42.640;23.312;2022-11-20T05:48:32;3.53;;;0.60;;
20036;SDS011;10179;42.640;23.312;2022-11-20T05:50:59;1.55;;;0.70;;
20036;SDS011;10179;42.640;23.312;2022-11-20T05:53:25;1.52;;;0.77;;
20036;SDS011;10179;42.640;23.312;2022-11-20T05:55:58;1.13;;;0.60;;
20036;SDS011;10179;42.640;23.312;2022-11-20T05:58:28;5.65;;;0.50;;
20036;SDS011;10179;42.640;23.312;2022-11-20T06:01:02;4.55;;;0.75;;
20036;SDS011;10179;42.640;23.312;2022-11-20T06:03:31;2.10;;;0.73;;
20036;SDS011;10179;42.640;23.312;2022-11-20T06:05:58;2.38;;;0.70;;
20036;SDS011;10179;42.640;23.312;2022-11-20T06:08:24;5.00;;;0.85;;
20036;SDS011;10179;42.640;23.312;2022-11-20T06:10:50;2.78;;;1.05;;
20036;SDS011;10179;42.640;23.312;2022-11-20T06:13:15;1.92;;;0.77;;
20036;SDS011;10179;42.640;23.312;2022-11-20T06:15:41;3.38;;;0.80;;
20036;SDS011;10179;42.640;23.312;2022-11-20T06:18:06;4.40;;;0.90;;
20036;SDS011;10179;42.640;23.312;2022-11-20T06:20:31;3.00;;;1.00;;
20036;SDS011;10179;42.640;23.312;2022-11-20T06:22:57;4.55;;;0.90;;
20036;SDS011;10179;42.640;23.312;2022-11-20T06:25:22;2.20;;;0.70;;
20036;SDS011;10179;42.640;23.312;2022-11-20T06:27:47;3.47;;;0.65;;
20036;SDS011;10179;42.640;23.312;2022-11-20T06:30:13;1.55;;;0.47;;
20036;SDS011;10179;42.640;23.312;2022-11-20T06:32:38;3.53;;;0.55;;
20036;SDS011;10179;42.640;23.312;2022-11-20T06:35:04;5.28;;;0.57;;
20036;SDS011;10179;42.640;23.312;2022-11-20T06:37:29;2.15;;;0.80;;
20036;SDS011;10179;42.640;23.312;2022-11-20T06:39:55;1.55;;;0.63;;
20036;SDS011;10179;42.640;23.312;2022-11-20T06:42:20;1.00;;;0.60;;
20036;SDS011;10179;42.640;23.312;2022-11-20T06:44:45;5.65;;;0.63;;
20036;SDS011;10179;42.640;23.312;2022-11-20T06:47:11;1.70;;;0.70;;
20036;SDS011;10179;42.640;23.312;2022-11-20T06:49:36;0.60;;;0.40;;
20036;SDS011;10179;42.640;23.312;2022-11-20T06:52:04;3.28;;;0.80;;
20036;SDS011;10179;42.640;23.312;2022-11-20T06:54:29;3.85;;;0.82;;
20036;SDS011;10179;42.640;23.312;2022-11-20T06:56:54;4.93;;;0.82;;
20036;SDS011;10179;42.640;23.312;2022-11-20T06:59:20;4.22;;;0.47;;
20036;SDS011;10179;42.640;23.312;2022-11-20T07:01:46;1.75;;;0.47;;
20036;SDS011;10179;42.640;23.312;2022-11-20T07:04:11;4.45;;;0.50;;
20036;SDS011;10179;42.640;23.312;2022-11-20T07:06:37;2.17;;;0.52;;
20036;SDS011;10179;42.640;23.312;2022-11-20T07:09:02;4.45;;;0.50;;
20036;SDS011;10179;42.640;23.312;2022-11-20T07:11:27;2.95;;;1.05;;
20036;SDS011;10179;42.640;23.312;2022-11-20T07:13:53;1.88;;;0.70;;
20036;SDS011;10179;42.640;23.312;2022-11-20T07:16:18;1.77;;;0.90;;
20036;SDS011;10179;42.640;23.312;2022-11-20T07:18:44;5.18;;;0.60;;
20036;SDS011;10179;42.640;23.312;2022-11-20T07:21:10;3.03;;;0.65;;
20036;SDS011;10179;42.640;23.312;2022-11-20T07:23:36;4.32;;;0.90;;
20036;SDS011;10179;42.640;23.312;2022-11-20T07:26:08;3.17;;;1.30;;
20036;SDS011;10179;42.640;23.312;2022-11-20T07:28:35;5.13;;;0.77;;
20036;SDS011;10179;42.640;23.312;2022-11-20T07:31:01;3.15;;;1.15;;
20036;SDS011;10179;42.640;23.312;2022-11-20T07:33:27;3.90;;;0.68;;
20036;SDS011;10179;42.640;23.312;2022-11-20T07:35:53;4.00;;;0.95;;
20036;SDS011;10179;42.640;23.312;2022-11-20T07:38:18;1.75;;;0.55;;
20036;SDS011;10179;42.640;23.312;2022-11-20T07:40:44;1.83;;;0.60;;
20036;SDS011;10179;42.640;23.312;2022-11-20T07:43:09;3.60;;;1.05;;
20036;SDS011;10179;42.640;23.312;2022-11-20T07:45:35;6.20;;;0.60;;
20036;SDS011;10179;42.640;23.312;2022-11-20T07:48:00;3.38;;;0.60;;
20036;SDS011;10179;42.640;23.312;2022-11-20T07:50:25;4.22;;;0.77;;
20036;SDS011;10179;42.640;23.312;2022-11-20T07:52:51;2.17;;;0.57;;
20036;SDS011;10179;42.640;23.312;2022-11-20T07:55:17;5.28;;;1.08;;
20036;SDS011;10179;42.640;23.312;2022-11-20T07:57:42;5.10;;;1.13;;
20036;SDS011;10179;42.640;23.312;2022-11-20T08:00:09;3.05;;;0.70;;
20036;SDS011;10179;42.640;23.312;2022-11-20T08:02:39;7.20;;;0.85;;
20036;SDS011;10179;42.640;23.312;2022-11-20T08:05:06;7.13;;;1.38;;
20036;SDS011;10179;42.640;23.312;2022-11-20T08:07:39;2.53;;;0.82;;
20036;SDS011;10179;42.640;23.312;2022-11-20T08:10:06;2.55;;;0.80;;
20036;SDS011;10179;42.640;23.312;2022-11-20T08:12:33;3.13;;;0.90;;
20036;SDS011;10179;42.640;23.312;2022-11-20T08:15:17;3.47;;;1.00;;
20036;SDS011;10179;42.640;23.312;2022-11-20T08:17:42;5.18;;;1.27;;
20036;SDS011;10179;42.640;23.312;2022-11-20T08:20:08;7.32;;;1.15;;
20036;SDS011;10179;42.640;23.312;2022-11-20T08:22:34;6.85;;;0.88;;
20036;SDS011;10179;42.640;23.312;2022-11-20T08:25:00;8.15;;;1.92;;
20036;SDS011;10179;42.640;23.312;2022-11-20T08:27:25;5.82;;;1.15;;
20036;SDS011;10179;42.640;23.312;2022-11-20T08:29:51;5.82;;;0.98;;
20036;SDS011;10179;42.640;23.312;2022-11-20T08:32:16;6.07;;;0.85;;
20036;SDS011;10179;42.640;23.312;2022-11-20T08:34:42;9.10;;;1.10;;
20036;SDS011;10179;42.640;23.312;2022-11-20T08:37:07;8.18;;;2.10;;
20036;SDS011;10179;42.640;23.312;2022-11-20T08:39:32;8.90;;;1.30;;
20036;SDS011;10179;42.640;23.312;2022-11-20T08:41:58;4.72;;;0.88;;
20036;SDS011;10179;42.640;23.312;2022-11-20T08:44:23;5.75;;;1.20;;
20036;SDS011;10179;42.640;23.312;2022-11-20T08:46:49;3.50;;;0.90;;
20036;SDS011;10179;42.640;23.312;2022-11-20T08:49:14;2.92;;;0.73;;
20036;SDS011;10179;42.640;23.312;2022-11-20T08:51:40;8.40;;;0.80;;
20036;SDS011;10179;42.640;23.312;2022-11-20T08:54:06;3.80;;;0.90;;
20036;SDS011;10179;42.640;23.312;2022-11-20T08:56:32;2.40;;;0.90;;
20036;SDS011;10179;42.640;23.312;2022-11-20T08:58:57;4.25;;;1.10;;
20036;SDS011;10179;42.640;23.312;2022-11-20T09:01:24;5.57;;;1.20;;
20036;SDS011;10179;42.640;23.312;2022-11-20T09:03:50;4.88;;;1.10;;
20036;SDS011;10179;42.640;23.312;2022-11-20T09:06:15;5.55;;;1.20;;
20036;SDS011;10179;42.640;23.312;2022-11-20T09:08:41;4.65;;;1.42;;
20036;SDS011;10179;42.640;23.312;2022-11-20T09:11:07;4.40;;;1.45;;
20036;SDS011;10179;42.640;23.312;2022-11-20T09:13:34;8.38;;;2.00;;
20036;SDS011;10179;42.640;23.312;2022-11-20T09:16:04;4.18;;;0.70;;
20036;SDS011;10179;42.640;23.312;2022-11-20T09:18:31;3.70;;;0.60;;
20036;SDS011;10179;42.640;23.312;2022-11-20T09:21:01;3.75;;;0.65;;
20036;SDS011;10179;42.640;23.312;2022-11-20T09:23:31;2.55;;;0.73;;
20036;SDS011;10179;42.640;23.312;2022-11-20T09:26:01;3.70;;;1.00;;
20036;SDS011;10179;42.640;23.312;2022-11-20T09:28:27;2.92;;;1.00;;
20036;SDS011;10179;42.640;23.312;2022-11-20T09:30:53;2.42;;;0.45;;
20036;SDS011;10179;42.640;23.312;2022-11-20T09:33:18;2.67;;;0.90;;
20036;SDS011;10179;42.640;23.312;2022-11-20T09:35:44;2.05;;;0.90;;
20036;SDS011;10179;42.640;23.312;2022-11-20T09:38:09;1.40;;;0.50;;
20036;SDS011;10179;42.640;23.312;2022-11-20T09:40:38;3.28;;;0.77;;
20036;SDS011;10179;42.640;23.312;2022-11-20T09:43:13;2.38;;;1.30;;
20036;SDS011;10179;42.640;23.312;2022-11-20T09:51:11;4.63;;;1.38;;
20036;SDS011;10179;42.640;23.312;2022-11-20T09:56:44;2.40;;;0.90;;
20036;SDS011;10179;42.640;23.312;2022-11-20T09:59:25;5.38;;;1.92;;
20036;SDS011;10179;42.640;23.312;2022-11-20T10:01:57;3.78;;;1.40;;
20036;SDS011;10179;42.640;23.312;2022-11-20T10:04:25;2.25;;;1.60;;
20036;SDS011;10179;42.640;23.312;2022-11-20T10:09:32;5.22;;;2.47;;
20036;SDS011;10179;42.640;23.312;2022-11-20T10:14:57;5.22;;;2.50;;
20036;SDS011;10179;42.640;23.312;2022-11-20T10:20:23;5.65;;;2.10;;
20036;SDS011;10179;42.640;23.312;2022-11-20T10:25:44;7.78;;;1.95;;
20036;SDS011;10179;42.640;23.312;2022-11-20T10:28:30;9.82;;;2.55;;
20036;SDS011;10179;42.640;23.312;2022-11-20T10:31:36;4.28;;;1.98;;
20036;SDS011;10179;42.640;23.312;2022-11-20T10:34:21;3.10;;;1.40;;
20036;SDS011;10179;42.640;23.312;2022-11-20T10:36:52;9.95;;;2.30;;
20036;SDS011;10179;42.640;23.312;2022-11-20T10:41:54;3.97;;;2.00;;
20036;SDS011;10179;42.640;23.312;2022-11-20T10:44:22;7.65;;;2.22;;
20036;SDS011;10179;42.640;23.312;2022-11-20T10:47:12;4.65;;;1.98;;
20036;SDS011;10179;42.640;23.312;2022-11-20T10:49:45;8.57;;;2.30;;
20036;SDS011;10179;42.640;23.312;2022-11-20T10:55:17;5.97;;;2.40;;
20036;SDS011;10179;42.640;23.312;2022-11-20T10:57:52;3.47;;;2.05;;
20036;SDS011;10179;42.640;23.312;2022-11-20T11:00:25;7.65;;;3.28;;
20036;SDS011;10179;42.640;23.312;2022-11-20T11:02:51;7.60;;;2.47;;
20036;SDS011;10179;42.640;23.312;2022-11-20T11:07:58;8.18;;;2.50;;
20036;SDS011;10179;42.640;23.312;2022-11-20T11:10:24;11.35;;;3.20;;
20036;SDS011;10179;42.640;23.312;2022-11-20T11:12:57;9.27;;;4.03;;
20036;SDS011;10179;42.640;23.312;2022-11-20T11:15:36;7.75;;;2.60;;
20036;SDS011;10179;42.640;23.312;2022-11-20T11:18:02;6.90;;;2.50;;
20036;SDS011;10179;42.640;23.312;2022-11-20T11:20:28;3.10;;;1.40;;
20036;SDS011;10179;42.640;23.312;2022-11-20T11:22:55;4.28;;;0.73;;
20036;SDS011;10179;42.640;23.312;2022-11-20T11:25:29;1.15;;;0.60;;
20036;SDS011;10179;42.640;23.312;2022-11-20T11:28:17;5.45;;;0.80;;
20036;SDS011;10179;42.640;23.312;2022-11-20T11:30:45;3.00;;;0.70;;
20036;SDS011;10179;42.640;23.312;2022-11-20T11:33:24;2.53;;;0.50;;
20036;SDS011;10179;42.640;23.312;2022-11-20T11:35:54;2.47;;;0.43;;
20036;SDS011;10179;42.640;23.312;2022-11-20T11:38:28;3.17;;;0.70;;
20036;SDS011;10179;42.640;23.312;2022-11-20T11:40:59;2.05;;;0.60;;
20036;SDS011;10179;42.640;23.312;2022-11-20T11:43:26;2.80;;;0.68;;
20036;SDS011;10179;42.640;23.312;2022-11-20T11:46:23;5.55;;;0.75;;
20036;SDS011;10179;42.640;23.312;2022-11-20T11:48:56;5.65;;;1.60;;
20036;SDS011;10179;42.640;23.312;2022-11-20T11:51:28;5.70;;;1.10;;
20036;SDS011;10179;42.640;23.312;2022-11-20T11:53:59;6.35;;;0.63;;
20036;SDS011;10179;42.640;23.312;2022-11-20T11:56:28;6.55;;;0.85;;
20036;SDS011;10179;42.640;23.312;2022-11-20T11:58:56;3.20;;;0.82;;
20036;SDS011;10179;42.640;23.312;2022-11-20T12:04:17;0.52;;;0.40;;
20036;SDS011;10179;42.640;23.312;2022-11-20T12:07:01;2.92;;;0.43;;
20036;SDS011;10179;42.640;23.312;2022-11-20T12:09:37;2.40;;;0.55;;
20036;SDS011;10179;42.640;23.312;2022-11-20T12:14:36;4.20;;;0.70;;
20036;SDS011;10179;42.640;23.312;2022-11-20T12:17:03;1.63;;;0.60;;
20036;SDS011;10179;42.640;23.312;2022-11-20T12:19:30;2.38;;;0.60;;
20036;SDS011;10179;42.640;23.312;2022-11-20T12:25:46;4.63;;;1.10;;
20036;SDS011;10179;42.640;23.312;2022-11-20T12:28:05;2.20;;;0.90;;
20036;SDS011;10179;42.640;23.312;2022-11-20T12:38:57;2.25;;;0.68;;
20036;SDS011;10179;42.640;23.312;2022-11-20T13:07:01;4.40;;;1.30;;
20036;SDS011;10179;42.640;23.312;2022-11-20T13:09:29;4.10;;;1.55;;
20036;SDS011;10179;42.640;23.312;2022-11-20T13:12:02;4.07;;;1.20;;
20036;SDS011;10179;42.640;23.312;2022-11-20T13:14:37;8.80;;;2.30;;
20036;SDS011;10179;42.640;23.312;2022-11-20T13:17:14;7.35;;;1.60;;
20036;SDS011;10179;42.640;23.312;2022-11-20T13:19:41;7.25;;;1.50;;
20036;SDS011;10179;42.640;23.312;2022-11-20T13:22:11;8.80;;;2.53;;
20036;SDS011;10179;42.640;23.312;2022-11-20T13:24:36;6.78;;;2.50;;
20036;SDS011;10179;42.640;23.312;2022-11-20T13:27:03;5.38;;;1.90;;
20036;SDS011;10179;42.640;23.312;2022-11-20T13:29:37;2.03;;;1.40;;
20036;SDS011;10179;42.640;23.312;2022-11-20T13:32:17;4.82;;;1.98;;
20036;SDS011;10179;42.640;23.312;2022-11-20T13:34:52;4.63;;;2.53;;
20036;SDS011;10179;42.640;23.312;2022-11-20T13:37:29;3.67;;;1.85;;
20036;SDS011;10179;42.640;23.312;2022-11-20T13:42:44;5.78;;;1.70;;
20036;SDS011;10179;42.640;23.312;2022-11-20T13:45:24;4.03;;;2.10;;
20036;SDS011;10179;42.640;23.312;2022-11-20T13:47:51;8.82;;;2.08;;
20036;SDS011;10179;42.640;23.312;2022-11-20T13:50:18;6.03;;;2.20;;
20036;SDS011;10179;42.640;23.312;2022-11-20T13:52:58;4.88;;;1.50;;
20036;SDS011;10179;42.640;23.312;2022-11-20T14:04:01;2.97;;;1.88;;
20036;SDS011;10179;42.640;23.312;2022-11-20T14:06:43;4.53;;;2.10;;
20036;SDS011;10179;42.640;23.312;2022-11-20T14:09:24;7.35;;;2.55;;
20036;SDS011;10179;42.640;23.312;2022-11-20T14:11:54;6.55;;;2.05;;
20036;SDS011;10179;42.640;23.312;2022-11-20T14:14:21;5.65;;;2.28;;
20036;SDS011;10179;42.640;23.312;2022-11-20T14:16:48;11.90;;;2.30;;
20036;SDS011;10179;42.640;23.312;2022-11-20T14:21:51;8.40;;;2.28;;
20036;SDS011;10179;42.640;23.312;2022-11-20T14:24:20;7.22;;;2.55;;
20036;SDS011;10179;42.640;23.312;2022-11-20T14:26:47;5.50;;;2.55;;
20036;SDS011;10179;42.640;23.312;2022-11-20T14:29:17;8.77;;;2.95;;
20036;SDS011;10179;42.640;23.312;2022-11-20T14:31:53;13.85;;;6.32;;
20036;SDS011;10179;42.640;23.312;2022-11-20T14:34:22;11.23;;;5.47;;
20036;SDS011;10179;42.640;23.312;2022-11-20T14:36:51;13.02;;;5.00;;
20036;SDS011;10179;42.640;23.312;2022-11-20T14:39:22;11.07;;;3.53;;
20036;SDS011;10179;42.640;23.312;2022-11-20T14:41:53;14.57;;;3.80;;
20036;SDS011;10179;42.640;23.312;2022-11-20T14:44:32;9.27;;;4.57;;
20036;SDS011;10179;42.640;23.312;2022-11-20T14:47:00;7.95;;;3.60;;
20036;SDS011;10179;42.640;23.312;2022-11-20T14:49:27;4.45;;;2.28;;
20036;SDS011;10179;42.640;23.312;2022-11-20T14:51:58;3.75;;;1.70;;
20036;SDS011;10179;42.640;23.312;2022-11-20T14:54:25;3.53;;;1.33;;
20036;SDS011;10179;42.640;23.312;2022-11-20T14:57:02;3.63;;;1.40;;
20036;SDS011;10179;42.640;23.312;2022-11-20T14:59:29;1.95;;;1.10;;
20036;SDS011;10179;42.640;23.312;2022-11-20T15:02:00;3.38;;;1.40;;
20036;SDS011;10179;42.640;23.312;2022-11-20T15:04:31;1.48;;;1.10;;
20036;SDS011;10179;42.640;23.312;2022-11-20T15:06:57;3.65;;;1.42;;
20036;SDS011;10179;42.640;23.312;2022-11-20T15:09:24;4.60;;;1.50;;
20036;SDS011;10179;42.640;23.312;2022-11-20T15:11:52;2.78;;;1.25;;
20036;SDS011;10179;42.640;23.312;2022-11-20T15:14:17;4.53;;;1.67;;
20036;SDS011;10179;42.640;23.312;2022-11-20T15:16:43;5.05;;;2.08;;
20036;SDS011;10179;42.640;23.312;2022-11-20T15:19:19;2.92;;;1.55;;
20036;SDS011;10179;42.640;23.312;2022-11-20T15:21:48;2.95;;;1.55;;
20036;SDS011;10179;42.640;23.312;2022-11-20T15:24:14;3.28;;;1.70;;
20036;SDS011;10179;42.640;23.312;2022-11-20T15:26:39;7.47;;;2.65;;
20036;SDS011;10179;42.640;23.312;2022-11-20T15:29:07;3.90;;;1.73;;
20036;SDS011;10179;42.640;23.312;2022-11-20T15:31:34;3.08;;;1.50;;
20036;SDS011;10179;42.640;23.312;2022-11-20T15:34:00;4.40;;;2.25;;
20036;SDS011;10179;42.640;23.312;2022-11-20T15:36:25;4.47;;;1.83;;
20036;SDS011;10179;42.640;23.312;2022-11-20T15:38:50;3.40;;;1.92;;
20036;SDS011;10179;42.640;23.312;2022-11-20T15:41:16;3.60;;;1.80;;
20036;SDS011;10179;42.640;23.312;2022-11-20T15:43:41;4.40;;;2.42;;
20036;SDS011;10179;42.640;23.312;2022-11-20T15:46:13;4.78;;;2.00;;
20036;SDS011;10179;42.640;23.312;2022-11-20T15:48:45;5.63;;;2.05;;
20036;SDS011;10179;42.640;23.312;2022-11-20T15:51:37;4.50;;;1.92;;
20036;SDS011;10179;42.640;23.312;2022-11-20T15:54:11;2.67;;;1.60;;
20036;SDS011;10179;42.640;23.312;2022-11-20T15:56:38;2.85;;;1.40;;
20036;SDS011;10179;42.640;23.312;2022-11-20T15:59:04;3.13;;;2.10;;
20036;SDS011;10179;42.640;23.312;2022-11-20T16:01:29;3.58;;;1.63;;
20036;SDS011;10179;42.640;23.312;2022-11-20T16:03:55;3.25;;;1.50;;
20036;SDS011;10179;42.640;23.312;2022-11-20T16:06:21;4.10;;;2.00;;
20036;SDS011;10179;42.640;23.312;2022-11-20T16:08:46;6.40;;;3.35;;
20036;SDS011;10179;42.640;23.312;2022-11-20T16:11:12;8.65;;;3.92;;
20036;SDS011;10179;42.640;23.312;2022-11-20T16:13:39;3.97;;;1.90;;
20036;SDS011;10179;42.640;23.312;2022-11-20T16:16:30;5.35;;;2.28;;